sensor_id;sensor_type;location;lat;lon;timestamp;P1;durP1;ratioP1;P2;durP2;ratioP2
9364;SDS011;4722;49.340;9.800;2024-02-16T00:01:05;5.45;;;1.92;;
9364;SDS011;4722;49.340;9.800;2024-02-16T00:03:31;3.08;;;1.40;;
9364;SDS011;4722;49.340;9.800;2024-02-16T00:05:57;4.70;;;1.77;;
9364;SDS011;4722;49.340;9.800;2024-02-16T00:08:23;8.93;;;1.80;;
9364;SDS011;4722;49.340;9.800;2024-02-16T00:10:49;3.33;;;1.60;;
9364;SDS011;4722;49.340;9.800;2024-02-16T00:13:15;4.93;;;2.05;;
9364;SDS011;4722;49.340;9.800;2024-02-16T00:15:41;4.50;;;1.38;;
9364;SDS011;4722;49.340;9.800;2024-02-16T00:18:07;3.75;;;1.67;;
9364;SDS011;4722;49.340;9.800;2024-02-16T00:20:33;12.25;;;4.40;;
9364;SDS011;4722;49.340;9.800;2024-02-16T00:22:59;12.38;;;5.13;;
9364;SDS011;4722;49.340;9.800;2024-02-16T00:25:25;25.90;;;7.13;;
9364;SDS011;4722;49.340;9.800;2024-02-16T00:27:51;14.18;;;5.40;;
9364;SDS011;4722;49.340;9.800;2024-02-16T00:30:21;9.95;;;4.13;;
9364;SDS011;4722;49.340;9.800;2024-02-16T00:32:47;14.32;;;5.22;;
9364;SDS011;4722;49.340;9.800;2024-02-16T00:35:16;11.25;;;4.15;;
9364;SDS011;4722;49.340;9.800;2024-02-16T00:37:42;12.88;;;4.72;;
9364;SDS011;4722;49.340;9.800;2024-02-16T00:40:09;7.95;;;3.65;;
9364;SDS011;4722;49.340;9.800;2024-02-16T00:42:35;6.78;;;3.85;;
9364;SDS011;4722;49.340;9.800;2024-02-16T00:45:01;7.43;;;3.05;;
9364;SDS011;4722;49.340;9.800;2024-02-16T00:47:28;6.85;;;2.80;;
9364;SDS011;4722;49.340;9.800;2024-02-16T00:49:54;7.63;;;3.10;;
9364;SDS011;4722;49.340;9.800;2024-02-16T00:52:21;4.32;;;2.28;;
9364;SDS011;4722;49.340;9.800;2024-02-16T00:54:47;4.78;;;2.20;;
9364;SDS011;4722;49.340;9.800;2024-02-16T00:57:13;7.15;;;2.60;;
9364;SDS011;4722;49.340;9.800;2024-02-16T00:59:40;5.28;;;2.40;;
9364;SDS011;4722;49.340;9.800;2024-02-16T01:02:06;5.07;;;2.80;;
9364;SDS011;4722;49.340;9.800;2024-02-16T01:04:32;3.13;;;2.10;;
9364;SDS011;4722;49.340;9.800;2024-02-16T01:06:58;8.00;;;2.20;;
9364;SDS011;4722;49.340;9.800;2024-02-16T01:09:24;7.03;;;2.38;;
9364;SDS011;4722;49.340;9.800;2024-02-16T01:11:51;4.43;;;2.00;;
9364;SDS011;4722;49.340;9.800;2024-02-16T01:14:17;3.75;;;1.65;;
9364;SDS011;4722;49.340;9.800;2024-02-16T01:16:44;2.67;;;1.58;;
9364;SDS011;4722;49.340;9.800;2024-02-16T01:19:11;6.10;;;2.33;;
9364;SDS011;4722;49.340;9.800;2024-02-16T01:21:37;10.15;;;2.40;;
9364;SDS011;4722;49.340;9.800;2024-02-16T01:24:03;8.38;;;3.40;;
9364;SDS011;4722;49.340;9.800;2024-02-16T01:26:30;9.07;;;2.88;;
9364;SDS011;4722;49.340;9.800;2024-02-16T01:28:56;6.85;;;2.33;;
9364;SDS011;4722;49.340;9.800;2024-02-16T01:31:23;5.95;;;2.08;;
9364;SDS011;4722;49.340;9.800;2024-02-16T01:33:49;4.40;;;2.47;;
9364;SDS011;4722;49.340;9.800;2024-02-16T01:36:14;7.55;;;2.50;;
9364;SDS011;4722;49.340;9.800;2024-02-16T01:38:41;4.97;;;1.77;;
9364;SDS011;4722;49.340;9.800;2024-02-16T01:41:06;6.03;;;2.08;;
9364;SDS011;4722;49.340;9.800;2024-02-16T01:43:34;7.70;;;2.78;;
9364;SDS011;4722;49.340;9.800;2024-02-16T01:45:59;2.67;;;1.63;;
9364;SDS011;4722;49.340;9.800;2024-02-16T01:48:26;9.00;;;2.00;;
9364;SDS011;4722;49.340;9.800;2024-02-16T01:50:52;5.28;;;2.28;;
9364;SDS011;4722;49.340;9.800;2024-02-16T01:53:19;5.32;;;2.33;;
9364;SDS011;4722;49.340;9.800;2024-02-16T01:55:46;9.45;;;2.88;;
9364;SDS011;4722;49.340;9.800;2024-02-16T01:58:12;5.53;;;2.17;;
9364;SDS011;4722;49.340;9.800;2024-02-16T02:00:38;5.57;;;2.30;;
9364;SDS011;4722;49.340;9.800;2024-02-16T02:03:05;4.15;;;2.05;;
9364;SDS011;4722;49.340;9.800;2024-02-16T02:05:31;3.67;;;2.00;;
9364;SDS011;4722;49.340;9.800;2024-02-16T02:07:58;7.28;;;1.90;;
9364;SDS011;4722;49.340;9.800;2024-02-16T02:10:24;5.18;;;2.50;;
9364;SDS011;4722;49.340;9.800;2024-02-16T02:12:50;2.88;;;1.80;;
9364;SDS011;4722;49.340;9.800;2024-02-16T02:15:16;6.15;;;1.88;;
9364;SDS011;4722;49.340;9.800;2024-02-16T02:17:42;3.47;;;1.73;;
9364;SDS011;4722;49.340;9.800;2024-02-16T02:20:08;5.82;;;2.03;;
9364;SDS011;4722;49.340;9.800;2024-02-16T02:22:36;2.13;;;1.50;;
9364;SDS011;4722;49.340;9.800;2024-02-16T02:25:03;3.45;;;1.75;;
9364;SDS011;4722;49.340;9.800;2024-02-16T02:27:29;3.08;;;1.52;;
9364;SDS011;4722;49.340;9.800;2024-02-16T02:29:56;4.55;;;2.08;;
9364;SDS011;4722;49.340;9.800;2024-02-16T02:32:23;2.90;;;1.35;;
9364;SDS011;4722;49.340;9.800;2024-02-16T02:34:49;3.33;;;1.65;;
9364;SDS011;4722;49.340;9.800;2024-02-16T02:37:15;3.33;;;1.67;;
9364;SDS011;4722;49.340;9.800;2024-02-16T02:39:40;4.47;;;1.73;;
9364;SDS011;4722;49.340;9.800;2024-02-16T02:42:07;3.67;;;1.50;;
9364;SDS011;4722;49.340;9.800;2024-02-16T02:44:34;2.40;;;1.40;;
9364;SDS011;4722;49.340;9.800;2024-02-16T02:47:00;9.75;;;1.85;;
9364;SDS011;4722;49.340;9.800;2024-02-16T02:49:26;3.97;;;1.65;;
9364;SDS011;4722;49.340;9.800;2024-02-16T02:51:52;4.00;;;1.33;;
9364;SDS011;4722;49.340;9.800;2024-02-16T02:54:18;3.75;;;1.30;;
9364;SDS011;4722;49.340;9.800;2024-02-16T02:56:44;2.50;;;1.50;;
9364;SDS011;4722;49.340;9.800;2024-02-16T02:59:10;6.47;;;1.73;;
9364;SDS011;4722;49.340;9.800;2024-02-16T03:01:36;8.23;;;1.10;;
9364;SDS011;4722;49.340;9.800;2024-02-16T03:04:03;2.60;;;1.60;;
9364;SDS011;4722;49.340;9.800;2024-02-16T03:06:29;3.03;;;1.60;;
9364;SDS011;4722;49.340;9.800;2024-02-16T03:08:55;2.47;;;1.40;;
9364;SDS011;4722;49.340;9.800;2024-02-16T03:11:21;2.78;;;1.42;;
9364;SDS011;4722;49.340;9.800;2024-02-16T03:13:47;7.28;;;1.90;;
9364;SDS011;4722;49.340;9.800;2024-02-16T03:16:13;5.43;;;1.92;;
9364;SDS011;4722;49.340;9.800;2024-02-16T03:18:39;5.60;;;1.73;;
9364;SDS011;4722;49.340;9.800;2024-02-16T03:21:05;4.50;;;1.50;;
9364;SDS011;4722;49.340;9.800;2024-02-16T03:23:32;4.22;;;1.67;;
9364;SDS011;4722;49.340;9.800;2024-02-16T03:25:58;2.83;;;1.42;;
9364;SDS011;4722;49.340;9.800;2024-02-16T03:28:24;3.45;;;1.50;;
9364;SDS011;4722;49.340;9.800;2024-02-16T03:30:50;3.10;;;1.58;;
9364;SDS011;4722;49.340;9.800;2024-02-16T03:33:16;3.50;;;1.25;;
9364;SDS011;4722;49.340;9.800;2024-02-16T03:35:42;2.83;;;1.65;;
9364;SDS011;4722;49.340;9.800;2024-02-16T03:38:08;3.80;;;1.40;;
9364;SDS011;4722;49.340;9.800;2024-02-16T03:40:35;2.22;;;1.10;;
9364;SDS011;4722;49.340;9.800;2024-02-16T03:43:02;4.40;;;2.17;;
9364;SDS011;4722;49.340;9.800;2024-02-16T03:45:28;2.78;;;1.38;;
9364;SDS011;4722;49.340;9.800;2024-02-16T03:47:53;1.88;;;1.10;;
9364;SDS011;4722;49.340;9.800;2024-02-16T03:50:20;3.38;;;1.55;;
9364;SDS011;4722;49.340;9.800;2024-02-16T03:52:47;2.58;;;1.55;;
9364;SDS011;4722;49.340;9.800;2024-02-16T03:55:13;1.98;;;1.10;;
9364;SDS011;4722;49.340;9.800;2024-02-16T03:57:39;3.67;;;1.35;;
9364;SDS011;4722;49.340;9.800;2024-02-16T04:00:06;3.90;;;1.40;;
9364;SDS011;4722;49.340;9.800;2024-02-16T04:02:33;4.05;;;1.75;;
9364;SDS011;4722;49.340;9.800;2024-02-16T04:04:59;3.22;;;1.65;;
9364;SDS011;4722;49.340;9.800;2024-02-16T04:07:25;2.53;;;1.30;;
9364;SDS011;4722;49.340;9.800;2024-02-16T04:09:51;5.55;;;1.83;;
9364;SDS011;4722;49.340;9.800;2024-02-16T04:12:17;4.40;;;2.00;;
9364;SDS011;4722;49.340;9.800;2024-02-16T04:14:43;1.85;;;0.93;;
9364;SDS011;4722;49.340;9.800;2024-02-16T04:17:09;2.80;;;1.60;;
9364;SDS011;4722;49.340;9.800;2024-02-16T04:19:38;2.45;;;1.10;;
9364;SDS011;4722;49.340;9.800;2024-02-16T04:22:04;2.95;;;1.45;;
9364;SDS011;4722;49.340;9.800;2024-02-16T04:24:30;3.28;;;1.67;;
9364;SDS011;4722;49.340;9.800;2024-02-16T04:26:56;2.67;;;1.30;;
9364;SDS011;4722;49.340;9.800;2024-02-16T04:29:22;4.20;;;1.52;;
9364;SDS011;4722;49.340;9.800;2024-02-16T04:31:48;2.92;;;1.58;;
9364;SDS011;4722;49.340;9.800;2024-02-16T04:34:14;6.07;;;2.15;;
9364;SDS011;4722;49.340;9.800;2024-02-16T04:36:41;2.50;;;1.45;;
9364;SDS011;4722;49.340;9.800;2024-02-16T04:39:08;4.60;;;2.08;;
9364;SDS011;4722;49.340;9.800;2024-02-16T04:41:35;3.75;;;1.33;;
9364;SDS011;4722;49.340;9.800;2024-02-16T04:44:01;5.10;;;1.80;;
9364;SDS011;4722;49.340;9.800;2024-02-16T04:46:27;4.65;;;1.73;;
9364;SDS011;4722;49.340;9.800;2024-02-16T04:48:52;2.33;;;0.93;;
9364;SDS011;4722;49.340;9.800;2024-02-16T04:51:19;3.67;;;2.00;;
9364;SDS011;4722;49.340;9.800;2024-02-16T04:53:45;4.50;;;1.90;;
9364;SDS011;4722;49.340;9.800;2024-02-16T04:56:11;3.13;;;1.40;;
9364;SDS011;4722;49.340;9.800;2024-02-16T04:58:39;3.47;;;1.88;;
9364;SDS011;4722;49.340;9.800;2024-02-16T05:01:06;5.38;;;2.00;;
9364;SDS011;4722;49.340;9.800;2024-02-16T05:03:33;6.13;;;1.92;;
9364;SDS011;4722;49.340;9.800;2024-02-16T05:06:01;4.20;;;1.50;;
9364;SDS011;4722;49.340;9.800;2024-02-16T05:08:27;2.55;;;1.40;;
9364;SDS011;4722;49.340;9.800;2024-02-16T05:10:53;4.05;;;1.98;;
9364;SDS011;4722;49.340;9.800;2024-02-16T05:13:19;2.78;;;1.58;;
9364;SDS011;4722;49.340;9.800;2024-02-16T05:15:45;3.40;;;1.48;;
9364;SDS011;4722;49.340;9.800;2024-02-16T05:18:13;2.00;;;0.95;;
9364;SDS011;4722;49.340;9.800;2024-02-16T05:20:40;3.83;;;1.60;;
9364;SDS011;4722;49.340;9.800;2024-02-16T05:23:05;5.50;;;2.03;;
9364;SDS011;4722;49.340;9.800;2024-02-16T05:25:31;4.55;;;1.67;;
9364;SDS011;4722;49.340;9.800;2024-02-16T05:27:57;5.53;;;1.88;;
9364;SDS011;4722;49.340;9.800;2024-02-16T05:30:24;4.13;;;1.73;;
9364;SDS011;4722;49.340;9.800;2024-02-16T05:32:50;5.72;;;2.15;;
9364;SDS011;4722;49.340;9.800;2024-02-16T05:35:19;5.15;;;1.50;;
9364;SDS011;4722;49.340;9.800;2024-02-16T05:37:46;5.20;;;1.77;;
9364;SDS011;4722;49.340;9.800;2024-02-16T05:40:19;3.70;;;1.80;;
9364;SDS011;4722;49.340;9.800;2024-02-16T05:42:55;3.22;;;1.52;;
9364;SDS011;4722;49.340;9.800;2024-02-16T05:45:24;3.67;;;1.80;;
9364;SDS011;4722;49.340;9.800;2024-02-16T05:47:53;5.13;;;2.28;;
9364;SDS011;4722;49.340;9.800;2024-02-16T05:50:20;6.25;;;2.03;;
9364;SDS011;4722;49.340;9.800;2024-02-16T05:52:46;6.03;;;1.83;;
9364;SDS011;4722;49.340;9.800;2024-02-16T05:55:12;3.45;;;1.95;;
9364;SDS011;4722;49.340;9.800;2024-02-16T05:57:38;7.90;;;2.75;;
9364;SDS011;4722;49.340;9.800;2024-02-16T06:00:05;9.48;;;3.08;;
9364;SDS011;4722;49.340;9.800;2024-02-16T06:02:31;5.57;;;2.65;;
9364;SDS011;4722;49.340;9.800;2024-02-16T06:04:58;6.03;;;2.78;;
9364;SDS011;4722;49.340;9.800;2024-02-16T06:07:24;7.38;;;2.90;;
9364;SDS011;4722;49.340;9.800;2024-02-16T06:09:50;14.38;;;4.13;;
9364;SDS011;4722;49.340;9.800;2024-02-16T06:12:16;12.38;;;4.25;;
9364;SDS011;4722;49.340;9.800;2024-02-16T06:14:42;7.85;;;3.60;;
9364;SDS011;4722;49.340;9.800;2024-02-16T06:17:08;7.53;;;4.05;;
9364;SDS011;4722;49.340;9.800;2024-02-16T06:19:35;8.18;;;4.18;;
9364;SDS011;4722;49.340;9.800;2024-02-16T06:22:00;3.92;;;2.25;;
9364;SDS011;4722;49.340;9.800;2024-02-16T06:24:26;5.05;;;2.42;;
9364;SDS011;4722;49.340;9.800;2024-02-16T06:26:53;4.22;;;2.55;;
9364;SDS011;4722;49.340;9.800;2024-02-16T06:29:19;3.75;;;2.15;;
9364;SDS011;4722;49.340;9.800;2024-02-16T06:31:46;4.05;;;1.92;;
9364;SDS011;4722;49.340;9.800;2024-02-16T06:34:15;4.38;;;1.75;;
9364;SDS011;4722;49.340;9.800;2024-02-16T06:36:41;4.18;;;1.80;;
9364;SDS011;4722;49.340;9.800;2024-02-16T06:39:07;4.47;;;2.05;;
9364;SDS011;4722;49.340;9.800;2024-02-16T06:41:35;7.20;;;3.47;;
9364;SDS011;4722;49.340;9.800;2024-02-16T06:44:02;13.13;;;6.00;;
9364;SDS011;4722;49.340;9.800;2024-02-16T06:46:28;13.40;;;5.53;;
9364;SDS011;4722;49.340;9.800;2024-02-16T06:48:54;12.20;;;5.43;;
9364;SDS011;4722;49.340;9.800;2024-02-16T06:51:22;12.90;;;5.07;;
9364;SDS011;4722;49.340;9.800;2024-02-16T06:53:48;10.43;;;5.32;;
9364;SDS011;4722;49.340;9.800;2024-02-16T06:56:14;12.43;;;3.42;;
9364;SDS011;4722;49.340;9.800;2024-02-16T06:58:40;9.57;;;3.00;;
9364;SDS011;4722;49.340;9.800;2024-02-16T07:01:06;5.05;;;2.90;;
9364;SDS011;4722;49.340;9.800;2024-02-16T07:03:33;4.43;;;2.58;;
9364;SDS011;4722;49.340;9.800;2024-02-16T07:06:02;6.18;;;2.97;;
9364;SDS011;4722;49.340;9.800;2024-02-16T07:08:28;6.45;;;2.88;;
9364;SDS011;4722;49.340;9.800;2024-02-16T07:10:54;6.75;;;3.63;;
9364;SDS011;4722;49.340;9.800;2024-02-16T07:13:21;8.40;;;3.92;;
9364;SDS011;4722;49.340;9.800;2024-02-16T07:15:47;6.57;;;3.33;;
9364;SDS011;4722;49.340;9.800;2024-02-16T07:18:13;5.13;;;2.95;;
9364;SDS011;4722;49.340;9.800;2024-02-16T07:20:39;7.78;;;3.10;;
9364;SDS011;4722;49.340;9.800;2024-02-16T07:23:05;12.40;;;3.22;;
9364;SDS011;4722;49.340;9.800;2024-02-16T07:25:31;7.90;;;2.42;;
9364;SDS011;4722;49.340;9.800;2024-02-16T07:27:57;4.47;;;2.38;;
9364;SDS011;4722;49.340;9.800;2024-02-16T07:30:23;5.55;;;3.15;;
9364;SDS011;4722;49.340;9.800;2024-02-16T07:32:49;5.63;;;2.40;;
9364;SDS011;4722;49.340;9.800;2024-02-16T07:35:17;4.68;;;2.35;;
9364;SDS011;4722;49.340;9.800;2024-02-16T07:37:43;3.47;;;2.53;;
9364;SDS011;4722;49.340;9.800;2024-02-16T07:40:09;5.03;;;2.35;;
9364;SDS011;4722;49.340;9.800;2024-02-16T07:42:38;6.57;;;3.30;;
9364;SDS011;4722;49.340;9.800;2024-02-16T07:45:09;4.32;;;2.25;;
9364;SDS011;4722;49.340;9.800;2024-02-16T07:47:36;4.75;;;2.67;;
9364;SDS011;4722;49.340;9.800;2024-02-16T07:50:02;3.80;;;2.22;;
9364;SDS011;4722;49.340;9.800;2024-02-16T07:52:29;6.55;;;2.83;;
9364;SDS011;4722;49.340;9.800;2024-02-16T07:54:55;7.07;;;3.08;;
9364;SDS011;4722;49.340;9.800;2024-02-16T07:57:21;6.68;;;2.38;;
9364;SDS011;4722;49.340;9.800;2024-02-16T07:59:47;4.70;;;2.85;;
9364;SDS011;4722;49.340;9.800;2024-02-16T08:02:13;5.25;;;2.22;;
9364;SDS011;4722;49.340;9.800;2024-02-16T08:04:41;6.60;;;3.15;;
9364;SDS011;4722;49.340;9.800;2024-02-16T08:07:07;6.88;;;3.17;;
9364;SDS011;4722;49.340;9.800;2024-02-16T08:09:34;5.10;;;3.03;;
9364;SDS011;4722;49.340;9.800;2024-02-16T08:12:00;6.65;;;2.72;;
9364;SDS011;4722;49.340;9.800;2024-02-16T08:14:30;5.15;;;3.03;;
9364;SDS011;4722;49.340;9.800;2024-02-16T08:16:57;5.43;;;2.47;;
9364;SDS011;4722;49.340;9.800;2024-02-16T08:19:23;5.53;;;3.33;;
9364;SDS011;4722;49.340;9.800;2024-02-16T08:21:50;3.83;;;2.63;;
9364;SDS011;4722;49.340;9.800;2024-02-16T08:24:16;6.03;;;2.63;;
9364;SDS011;4722;49.340;9.800;2024-02-16T08:26:42;6.30;;;3.47;;
9364;SDS011;4722;49.340;9.800;2024-02-16T08:29:08;6.47;;;2.95;;
9364;SDS011;4722;49.340;9.800;2024-02-16T08:31:34;6.63;;;3.47;;
9364;SDS011;4722;49.340;9.800;2024-02-16T08:34:00;6.82;;;3.35;;
9364;SDS011;4722;49.340;9.800;2024-02-16T08:36:26;6.28;;;3.38;;
9364;SDS011;4722;49.340;9.800;2024-02-16T08:38:55;4.22;;;2.78;;
9364;SDS011;4722;49.340;9.800;2024-02-16T08:41:21;5.88;;;3.03;;
9364;SDS011;4722;49.340;9.800;2024-02-16T08:43:49;6.55;;;3.42;;
9364;SDS011;4722;49.340;9.800;2024-02-16T08:46:15;5.60;;;3.47;;
9364;SDS011;4722;49.340;9.800;2024-02-16T08:48:43;5.30;;;2.72;;
9364;SDS011;4722;49.340;9.800;2024-02-16T08:51:10;2.92;;;1.83;;
9364;SDS011;4722;49.340;9.800;2024-02-16T08:53:36;4.70;;;1.83;;
9364;SDS011;4722;49.340;9.800;2024-02-16T08:56:02;3.38;;;1.98;;
9364;SDS011;4722;49.340;9.800;2024-02-16T08:58:28;5.28;;;1.77;;
9364;SDS011;4722;49.340;9.800;2024-02-16T09:00:54;4.43;;;2.05;;
9364;SDS011;4722;49.340;9.800;2024-02-16T09:03:20;2.92;;;1.55;;
9364;SDS011;4722;49.340;9.800;2024-02-16T09:05:46;4.88;;;2.30;;
9364;SDS011;4722;49.340;9.800;2024-02-16T09:08:12;2.47;;;1.40;;
9364;SDS011;4722;49.340;9.800;2024-02-16T09:10:38;3.90;;;1.67;;
9364;SDS011;4722;49.340;9.800;2024-02-16T09:13:04;3.60;;;1.60;;
9364;SDS011;4722;49.340;9.800;2024-02-16T09:15:30;2.50;;;1.65;;
9364;SDS011;4722;49.340;9.800;2024-02-16T09:17:56;3.92;;;1.77;;
9364;SDS011;4722;49.340;9.800;2024-02-16T09:20:22;4.53;;;2.00;;
9364;SDS011;4722;49.340;9.800;2024-02-16T09:22:48;4.43;;;1.27;;
9364;SDS011;4722;49.340;9.800;2024-02-16T09:25:14;10.45;;;1.77;;
9364;SDS011;4722;49.340;9.800;2024-02-16T09:27:40;5.88;;;1.50;;
9364;SDS011;4722;49.340;9.800;2024-02-16T09:30:09;6.45;;;1.83;;
9364;SDS011;4722;49.340;9.800;2024-02-16T09:32:36;4.75;;;1.63;;
9364;SDS011;4722;49.340;9.800;2024-02-16T09:35:02;4.75;;;1.80;;
9364;SDS011;4722;49.340;9.800;2024-02-16T09:37:28;4.28;;;1.50;;
9364;SDS011;4722;49.340;9.800;2024-02-16T09:39:54;2.75;;;1.52;;
9364;SDS011;4722;49.340;9.800;2024-02-16T09:42:20;4.80;;;1.77;;
9364;SDS011;4722;49.340;9.800;2024-02-16T09:44:46;5.25;;;2.10;;
9364;SDS011;4722;49.340;9.800;2024-02-16T09:47:13;4.47;;;1.85;;
9364;SDS011;4722;49.340;9.800;2024-02-16T09:49:39;4.15;;;1.98;;
9364;SDS011;4722;49.340;9.800;2024-02-16T09:52:06;3.42;;;1.58;;
9364;SDS011;4722;49.340;9.800;2024-02-16T09:54:33;4.53;;;1.88;;
9364;SDS011;4722;49.340;9.800;2024-02-16T09:56:59;10.02;;;1.83;;
9364;SDS011;4722;49.340;9.800;2024-02-16T09:59:25;2.63;;;1.40;;
9364;SDS011;4722;49.340;9.800;2024-02-16T10:02:01;3.05;;;1.77;;
9364;SDS011;4722;49.340;9.800;2024-02-16T10:04:27;4.72;;;2.08;;
9364;SDS011;4722;49.340;9.800;2024-02-16T10:06:53;4.88;;;1.95;;
9364;SDS011;4722;49.340;9.800;2024-02-16T10:09:25;3.58;;;1.85;;
9364;SDS011;4722;49.340;9.800;2024-02-16T10:11:51;4.73;;;1.73;;
9364;SDS011;4722;49.340;9.800;2024-02-16T10:14:17;3.90;;;1.92;;
9364;SDS011;4722;49.340;9.800;2024-02-16T10:16:45;5.07;;;1.60;;
9364;SDS011;4722;49.340;9.800;2024-02-16T10:19:12;8.20;;;2.28;;
9364;SDS011;4722;49.340;9.800;2024-02-16T10:21:38;4.10;;;1.98;;
9364;SDS011;4722;49.340;9.800;2024-02-16T10:24:07;3.42;;;1.83;;
9364;SDS011;4722;49.340;9.800;2024-02-16T10:26:34;3.53;;;1.80;;
9364;SDS011;4722;49.340;9.800;2024-02-16T10:29:02;7.53;;;2.25;;
9364;SDS011;4722;49.340;9.800;2024-02-16T10:31:29;4.00;;;2.10;;
9364;SDS011;4722;49.340;9.800;2024-02-16T10:36:26;4.55;;;1.88;;
9364;SDS011;4722;49.340;9.800;2024-02-16T10:38:56;2.55;;;1.58;;
9364;SDS011;4722;49.340;9.800;2024-02-16T10:41:25;3.55;;;1.83;;
9364;SDS011;4722;49.340;9.800;2024-02-16T10:43:52;2.60;;;1.35;;
9364;SDS011;4722;49.340;9.800;2024-02-16T10:46:19;3.20;;;1.65;;
9364;SDS011;4722;49.340;9.800;2024-02-16T10:48:46;2.00;;;1.25;;
9364;SDS011;4722;49.340;9.800;2024-02-16T10:51:12;3.20;;;1.58;;
9364;SDS011;4722;49.340;9.800;2024-02-16T10:53:39;2.63;;;1.35;;
9364;SDS011;4722;49.340;9.800;2024-02-16T10:56:06;2.75;;;1.30;;
9364;SDS011;4722;49.340;9.800;2024-02-16T10:58:33;2.53;;;1.10;;
9364;SDS011;4722;49.340;9.800;2024-02-16T11:01:07;4.32;;;1.20;;
9364;SDS011;4722;49.340;9.800;2024-02-16T11:03:33;2.72;;;1.27;;
9364;SDS011;4722;49.340;9.800;2024-02-16T11:05:59;9.18;;;1.85;;
9364;SDS011;4722;49.340;9.800;2024-02-16T11:08:25;1.88;;;1.15;;
9364;SDS011;4722;49.340;9.800;2024-02-16T11:10:56;3.47;;;0.93;;
9364;SDS011;4722;49.340;9.800;2024-02-16T11:13:22;2.58;;;0.93;;
9364;SDS011;4722;49.340;9.800;2024-02-16T11:15:56;1.70;;;1.02;;
9364;SDS011;4722;49.340;9.800;2024-02-16T11:18:25;3.20;;;1.30;;
9364;SDS011;4722;49.340;9.800;2024-02-16T11:20:51;1.42;;;0.63;;
9364;SDS011;4722;49.340;9.800;2024-02-16T11:23:19;3.85;;;1.27;;
9364;SDS011;4722;49.340;9.800;2024-02-16T11:25:50;1.65;;;0.70;;
9364;SDS011;4722;49.340;9.800;2024-02-16T11:28:16;2.80;;;1.08;;
9364;SDS011;4722;49.340;9.800;2024-02-16T11:30:42;2.22;;;1.00;;
9364;SDS011;4722;49.340;9.800;2024-02-16T11:33:11;2.83;;;0.70;;
9364;SDS011;4722;49.340;9.800;2024-02-16T11:35:37;1.80;;;0.80;;
9364;SDS011;4722;49.340;9.800;2024-02-16T11:38:03;5.57;;;0.93;;
9364;SDS011;4722;49.340;9.800;2024-02-16T11:40:30;1.50;;;0.60;;
9364;SDS011;4722;49.340;9.800;2024-02-16T11:42:59;1.20;;;0.60;;
9364;SDS011;4722;49.340;9.800;2024-02-16T11:45:25;3.20;;;0.70;;
9364;SDS011;4722;49.340;9.800;2024-02-16T11:48:02;2.38;;;0.47;;
9364;SDS011;4722;49.340;9.800;2024-02-16T11:50:28;2.45;;;0.88;;
9364;SDS011;4722;49.340;9.800;2024-02-16T11:52:54;2.25;;;0.60;;
9364;SDS011;4722;49.340;9.800;2024-02-16T11:55:20;1.23;;;0.60;;
9364;SDS011;4722;49.340;9.800;2024-02-16T11:57:46;2.08;;;0.50;;
9364;SDS011;4722;49.340;9.800;2024-02-16T12:00:15;3.38;;;1.17;;
9364;SDS011;4722;49.340;9.800;2024-02-16T12:02:41;1.85;;;0.60;;
9364;SDS011;4722;49.340;9.800;2024-02-16T12:05:08;2.50;;;0.80;;
9364;SDS011;4722;49.340;9.800;2024-02-16T12:07:36;2.05;;;0.52;;
9364;SDS011;4722;49.340;9.800;2024-02-16T12:10:05;1.05;;;0.35;;
9364;SDS011;4722;49.340;9.800;2024-02-16T12:12:32;4.15;;;0.82;;
9364;SDS011;4722;49.340;9.800;2024-02-16T12:14:58;23.98;;;8.50;;
9364;SDS011;4722;49.340;9.800;2024-02-16T12:17:24;13.15;;;2.00;;
9364;SDS011;4722;49.340;9.800;2024-02-16T12:19:51;2.92;;;0.80;;
9364;SDS011;4722;49.340;9.800;2024-02-16T12:22:17;7.03;;;0.80;;
9364;SDS011;4722;49.340;9.800;2024-02-16T12:24:46;2.17;;;0.80;;
9364;SDS011;4722;49.340;9.800;2024-02-16T12:27:12;1.08;;;0.52;;
9364;SDS011;4722;49.340;9.800;2024-02-16T12:29:38;3.45;;;0.70;;
9364;SDS011;4722;49.340;9.800;2024-02-16T12:32:05;0.98;;;0.60;;
9364;SDS011;4722;49.340;9.800;2024-02-16T12:34:31;5.20;;;1.00;;
9364;SDS011;4722;49.340;9.800;2024-02-16T12:36:57;1.70;;;0.73;;
9364;SDS011;4722;49.340;9.800;2024-02-16T12:39:23;1.60;;;0.60;;
9364;SDS011;4722;49.340;9.800;2024-02-16T12:41:48;2.08;;;0.43;;
9364;SDS011;4722;49.340;9.800;2024-02-16T12:44:14;3.45;;;0.90;;
9364;SDS011;4722;49.340;9.800;2024-02-16T12:46:40;1.17;;;0.43;;
9364;SDS011;4722;49.340;9.800;2024-02-16T12:49:08;2.35;;;0.70;;
9364;SDS011;4722;49.340;9.800;2024-02-16T12:51:35;3.17;;;0.75;;
9364;SDS011;4722;49.340;9.800;2024-02-16T12:54:05;3.83;;;0.60;;
9364;SDS011;4722;49.340;9.800;2024-02-16T12:56:32;5.25;;;1.30;;
9364;SDS011;4722;49.340;9.800;2024-02-16T12:58:58;5.13;;;2.13;;
9364;SDS011;4722;49.340;9.800;2024-02-16T13:01:25;10.02;;;1.02;;
9364;SDS011;4722;49.340;9.800;2024-02-16T13:03:51;8.30;;;1.45;;
9364;SDS011;4722;49.340;9.800;2024-02-16T13:06:17;4.97;;;1.00;;
9364;SDS011;4722;49.340;9.800;2024-02-16T13:08:43;2.75;;;0.80;;
9364;SDS011;4722;49.340;9.800;2024-02-16T13:11:09;5.03;;;0.95;;
9364;SDS011;4722;49.340;9.800;2024-02-16T13:13:35;3.53;;;1.05;;
9364;SDS011;4722;49.340;9.800;2024-02-16T13:16:01;1.88;;;0.82;;
9364;SDS011;4722;49.340;9.800;2024-02-16T13:18:27;7.75;;;2.25;;
9364;SDS011;4722;49.340;9.800;2024-02-16T13:20:53;1.35;;;0.70;;
9364;SDS011;4722;49.340;9.800;2024-02-16T13:23:19;4.07;;;1.50;;
9364;SDS011;4722;49.340;9.800;2024-02-16T13:25:45;4.03;;;2.25;;
9364;SDS011;4722;49.340;9.800;2024-02-16T13:28:11;7.50;;;1.40;;
9364;SDS011;4722;49.340;9.800;2024-02-16T13:30:38;6.35;;;1.67;;
9364;SDS011;4722;49.340;9.800;2024-02-16T13:33:09;2.87;;;0.83;;
9364;SDS011;4722;49.340;9.800;2024-02-16T13:35:35;4.75;;;1.30;;
9364;SDS011;4722;49.340;9.800;2024-02-16T13:38:01;8.85;;;2.38;;
9364;SDS011;4722;49.340;9.800;2024-02-16T13:40:27;5.40;;;2.45;;
9364;SDS011;4722;49.340;9.800;2024-02-16T13:42:53;3.65;;;1.67;;
9364;SDS011;4722;49.340;9.800;2024-02-16T13:45:24;3.70;;;1.27;;
9364;SDS011;4722;49.340;9.800;2024-02-16T13:47:51;7.97;;;1.60;;
9364;SDS011;4722;49.340;9.800;2024-02-16T13:50:17;3.00;;;1.45;;
9364;SDS011;4722;49.340;9.800;2024-02-16T13:52:43;15.18;;;4.38;;
9364;SDS011;4722;49.340;9.800;2024-02-16T13:55:09;6.45;;;1.75;;
9364;SDS011;4722;49.340;9.800;2024-02-16T13:57:35;5.75;;;1.23;;
9364;SDS011;4722;49.340;9.800;2024-02-16T14:00:01;5.55;;;1.42;;
9364;SDS011;4722;49.340;9.800;2024-02-16T14:02:27;6.45;;;2.17;;
9364;SDS011;4722;49.340;9.800;2024-02-16T14:04:53;10.10;;;1.27;;
9364;SDS011;4722;49.340;9.800;2024-02-16T14:07:21;2.92;;;1.10;;
9364;SDS011;4722;49.340;9.800;2024-02-16T14:09:47;1.65;;;0.55;;
9364;SDS011;4722;49.340;9.800;2024-02-16T14:12:13;5.22;;;1.23;;
9364;SDS011;4722;49.340;9.800;2024-02-16T14:14:40;9.32;;;1.67;;
9364;SDS011;4722;49.340;9.800;2024-02-16T14:17:06;3.42;;;0.98;;
9364;SDS011;4722;49.340;9.800;2024-02-16T14:19:32;5.00;;;1.20;;
9364;SDS011;4722;49.340;9.800;2024-02-16T14:22:02;2.08;;;1.15;;
9364;SDS011;4722;49.340;9.800;2024-02-16T14:24:31;3.17;;;0.93;;
9364;SDS011;4722;49.340;9.800;2024-02-16T14:26:57;5.47;;;1.48;;
9364;SDS011;4722;49.340;9.800;2024-02-16T14:29:24;3.50;;;1.60;;
9364;SDS011;4722;49.340;9.800;2024-02-16T14:31:50;5.07;;;1.17;;
9364;SDS011;4722;49.340;9.800;2024-02-16T14:34:16;8.80;;;1.75;;
9364;SDS011;4722;49.340;9.800;2024-02-16T14:36:42;5.78;;;1.20;;
9364;SDS011;4722;49.340;9.800;2024-02-16T14:39:08;4.15;;;1.35;;
9364;SDS011;4722;49.340;9.800;2024-02-16T14:41:36;2.05;;;0.95;;
9364;SDS011;4722;49.340;9.800;2024-02-16T14:44:02;4.57;;;1.48;;
9364;SDS011;4722;49.340;9.800;2024-02-16T14:46:28;2.22;;;0.88;;
9364;SDS011;4722;49.340;9.800;2024-02-16T14:48:54;4.60;;;1.60;;
9364;SDS011;4722;49.340;9.800;2024-02-16T14:51:20;3.45;;;0.98;;
9364;SDS011;4722;49.340;9.800;2024-02-16T14:53:46;2.65;;;0.95;;
9364;SDS011;4722;49.340;9.800;2024-02-16T14:56:12;2.72;;;0.95;;
9364;SDS011;4722;49.340;9.800;2024-02-16T14:58:39;4.68;;;1.20;;
9364;SDS011;4722;49.340;9.800;2024-02-16T15:01:05;4.47;;;1.08;;
9364;SDS011;4722;49.340;9.800;2024-02-16T15:03:31;3.92;;;0.93;;
9364;SDS011;4722;49.340;9.800;2024-02-16T15:05:57;3.50;;;1.30;;
9364;SDS011;4722;49.340;9.800;2024-02-16T15:08:23;5.45;;;1.48;;
9364;SDS011;4722;49.340;9.800;2024-02-16T15:10:50;3.17;;;1.15;;
9364;SDS011;4722;49.340;9.800;2024-02-16T15:13:17;5.78;;;1.30;;